Aviation Digital Data Service (ADDS)

Output produced by METARs form (0719 UTC 24 March 2019)
found at http://www.aviationweather.gov/metar/data/
 
KMMI 240655Z AUTO 00000KT 10SM CLR 02/00 A3026 RMK A01
KM08 240655Z AUTO 13003KT 10SM FEW060 12/02 A3017 RMK A01
KTRI 240653Z 05003KT 10SM FEW050 BKN200 OVC250 M01/M03 A3027 RMK AO2 SLP245 T10061033
KTRI 240524Z 2406/2506 VRB03KT P6SM BKN250 
     FM241800 23009KT P6SM BKN150 
     FM250000 VRB02KT P6SM VCSH SCT060 OVC100
       
KCHA 240653Z AUTO 00000KT 10SM CLR 06/01 A3025 RMK AO2 SLP242 T00610011
KCHA 240524Z 2406/2506 00000KT P6SM SCT150 BKN250 
     FM241700 19009KT P6SM BKN150 
     FM250000 VRB02KT P6SM VCSH SCT060 OVC100
       
KCKV 240652Z AUTO 16003KT 10SM FEW120 07/M02 A3021 RMK AO2 SLP230 T00671022
KCKV 240520Z 2406/2506 18004KT P6SM BKN200 
     FM241500 20010KT P6SM VCSH SCT035 OVC070
       
KM04 240655Z AUTO 00000KT 10SM FEW015 SCT024 BKN030 11/06 A3015 RMK A01
KCSV 240653Z AUTO 31003KT 10SM CLR 03/M06 A3024 RMK AO2 SLP238 T00331056
KCSV 240520Z 2406/2506 16003KT P6SM BKN200 
     FM242000 22008KT P6SM SCT035 OVC070
       
K2A0 240655Z AUTO 00000KT 7SM CLR 02/01 A3024 RMK A01
KM02 240655Z AUTO 00000KT 10SM FEW120 10/M07 A3020 RMK A01
KDYR 240656Z AUTO 12005KT 10SM CLR 13/02 A3017 RMK AO2 SLP231 T01330017 PNO $
K0A9 240700Z AUTO 05003KT 10SM CLR 03/M05 A3027 RMK AO2
KFYM 240705Z AUTO 00000KT 9SM CLR 08/M05 A3021 RMK A01
KGCY 240655Z AUTO 00000KT 10SM FEW042 06/M06 A3024 RMK A01
KHZD 240655Z AUTO 11003KT 10SM OVC070 11/03 A3018 RMK A01
KJAU 240655Z AUTO 00000KT 10SM CLR 02/M02 A3028 RMK A01
KMKL 240653Z AUTO 13003KT 10SM CLR 09/03 A3018 RMK AO2 SLP218 T00940033
KMKL 240522Z 2406/2506 VRB03KT P6SM BKN150 
     FM241200 19006KT P6SM VCSH OVC080 
     TEMPO 2413/2417 5SM -SHRA OVC050 
     FM241700 20009KT P6SM VCSH BKN040 
     FM250000 19005KT P6SM BKN040
       
KDKX 240655Z AUTO 00000KT 10SM OVC036 03/02 A3025 RMK A01
KTYS 240653Z 03004KT 10SM CLR 04/M02 A3023 RMK AO2 SLP236 T00441022
KTYS 240524Z 2406/2506 VRB03KT P6SM SCT150 BKN250 
     FM241800 23012KT P6SM BKN150 
     FM250000 VRB03KT P6SM VCSH SCT060 OVC100
       
K2M2 240655Z AUTO 00000KT 10SM FEW032 BKN039 05/00 A3021 RMK A01
KM54 240655Z AUTO 00000KT 10SM FEW034 05/01 A3022 RMK A01
KLUG 240655Z AUTO 00000KT 10SM CLR 01/M01 A3022 RMK A01
KPVE 240655Z AUTO 00000KT 10SM OVC050 09/M00 A3019 RMK A01
KMNV 240655Z AUTO 00000KT 10SM BKN025 OVC031 02/M02 A3024 RMK A01
KRNC 240655Z AUTO 00000KT 10SM CLR 03/M01 A3023 RMK A01
KMEM 240654Z VRB03KT 10SM OVC200 14/02 A3014 RMK AO2 SLP205 T01390017 $
KMEM 240522Z 2406/2512 14005KT P6SM SCT100 BKN150 
     FM241100 18007KT P6SM VCSH OVC080 
     TEMPO 2412/2416 5SM -SHRA OVC050 
     FM241600 20010G16KT P6SM VCSH BKN040 
     FM250000 19008KT P6SM BKN040 
     FM250500 19008KT 5SM -SHRA VCTS OVC030CB 
     FM250900 25005KT P6SM VCSH OVC020
       
KNQA 240655Z AUTO 10003KT 10SM CLR 13/03 A3014 RMK A01
KMOR 240655Z AUTO 06004KT 10SM BKN036 OVC041 04/M02 A3023 RMK A01
KMBT 240655Z AUTO 00000KT 10SM CLR 06/00 A3021 RMK A01
KJWN 240655Z AUTO 00000KT 10SM CLR 06/00 A3021 RMK A01
KBNA 240653Z 00000KT 10SM BKN200 08/M02 A3023 RMK AO2 SLP234 T00781017
KBNA 240520Z 2406/2506 19004KT P6SM BKN200 
     FM241800 20008KT P6SM VCSH SCT035 OVC070
       
KSCX 240655Z AUTO 00000KT 10SM CLR 05/M06 A3022 RMK A01
KPHT 240655Z AUTO 11005KT 10SM FEW039 FEW046 BKN075 09/01 A3019 RMK A01
KGZS 240655Z AUTO 00000KT 10SM BKN038 03/01 A3022 RMK A01
KRKW 240655Z AUTO 00000KT 10SM CLR 07/M11 A3022 RMK A01
KSNH 240655Z AUTO 00000KT 10SM FEW037 BKN044 BKN055 07/05 A3018 RMK A01
KSZY 240655Z AUTO 00000KT 10SM CLR 09/03 A3018 RMK A01
KGKT 240655Z AUTO 00000KT 10SM CLR 03/M02 A3024 RMK A01
KSYI 240655Z AUTO 10003KT 10SM CLR 03/00 A3023 RMK A01
KMQY 240656Z AUTO 00000KT 10SM CLR 05/01 A3024 RMK AO2 SLP204 T00500006
KMQY 240520Z 2406/2506 19003KT P6SM BKN200 
     FM241800 20008KT P6SM VCSH SCT035 OVC070
       
KFYE 240655Z AUTO 00000KT 10SM FEW039 SCT047 13/02 A3014 RMK A01
KSRB 240655Z AUTO 00000KT 10SM CLR 02/00 A3023 RMK A01
KM91 240655Z AUTO 00000KT 9SM SCT038 06/M05 A3021 RMK A01
KTHA 240655Z AUTO 00000KT 10SM CLR 03/M01 A3022 RMK A01
KUCY 240655Z AUTO 12004KT 10SM FEW039 FEW050 SCT120 12/M01 A3016 RMK A01
KBGF 240655Z AUTO 14003KT 10SM CLR 09/M03 A3022 RMK A01